Time;durP1;ratioP1;P1;durP2;ratioP2;P2;SDS_P1;SDS_P2;PMS_P1;PMS_P2;Temp;Humidity;BMP_temperature;BMP_pressure;BME280_temperature;BME280_humidity;BME280_pressure;Samples;Min_cycle;Max_cycle;Signal;HPM_P1;HPM_P2
2023/04/25 00:00:28;;;;;;;1.50;0.70;;;15.10;99.90;;;;;;5076717;28;20047;-55
2023/04/25 00:02:56;;;;;;;1.63;0.90;;;15.10;99.90;;;;;;5076794;28;20036;-52
2023/04/25 00:05:23;;;;;;;1.00;0.90;;;15.10;99.90;;;;;;5077098;28;20028;-54
2023/04/25 00:07:49;;;;;;;0.85;0.57;;;15.10;99.90;;;;;;5077061;28;20035;-54
2023/04/25 00:10:15;;;;;;;0.52;0.50;;;15.00;99.90;;;;;;5076682;28;20086;-53
2023/04/25 00:12:41;;;;;;;1.33;0.70;;;15.00;99.90;;;;;;5076428;28;20036;-53
2023/04/25 00:15:07;;;;;;;0.77;0.52;;;14.90;99.90;;;;;;5058159;28;20543;-55
2023/04/25 00:17:34;;;;;;;0.75;0.68;;;14.90;99.90;;;;;;5076347;28;20388;-56
2023/04/25 00:20:04;;;;;;;1.00;0.90;;;14.90;99.90;;;;;;5076456;28;20043;-53
2023/04/25 00:22:30;;;;;;;0.70;0.70;;;14.90;99.90;;;;;;5076781;28;20422;-54
2023/04/25 00:24:57;;;;;;;0.65;0.50;;;14.90;99.90;;;;;;5076139;28;20028;-52
2023/04/25 00:27:22;;;;;;;0.60;0.55;;;14.90;99.90;;;;;;5076150;28;20049;-54
2023/04/25 00:29:48;;;;;;;1.25;0.70;;;14.90;99.90;;;;;;5076235;28;20032;-53
2023/04/25 00:32:14;;;;;;;2.70;1.17;;;14.90;99.90;;;;;;5069676;28;20032;-53
2023/04/25 00:34:39;;;;;;;1.27;0.93;;;14.90;99.90;;;;;;5058965;28;20422;-55
2023/04/25 00:37:05;;;;;;;1.23;0.75;;;14.90;99.90;;;;;;5056330;28;20108;-55
2023/04/25 00:39:31;;;;;;;1.02;0.88;;;15.00;99.90;;;;;;5021104;28;20128;-55
2023/04/25 00:41:58;;;;;;;1.00;0.93;;;15.00;99.90;;;;;;5056405;28;20058;-54
2023/04/25 00:44:26;;;;;;;1.63;0.98;;;15.00;99.90;;;;;;5055975;28;20062;-55
2023/04/25 00:46:53;;;;;;;0.88;0.88;;;14.90;99.90;;;;;;4981059;28;20050;-52
2023/04/25 00:49:19;;;;;;;1.33;1.02;;;14.90;99.90;;;;;;5013906;28;20037;-53
2023/04/25 00:51:45;;;;;;;3.85;2.20;;;14.80;99.90;;;;;;5013828;28;20124;-54
2023/04/25 00:54:12;;;;;;;1.73;1.40;;;14.70;99.90;;;;;;4997628;28;20037;-52
2023/04/25 00:56:38;;;;;;;0.60;0.60;;;14.60;99.90;;;;;;5013866;28;20052;-54
2023/04/25 00:59:04;;;;;;;0.60;0.60;;;14.60;99.90;;;;;;5012681;28;20072;-55
2023/04/25 01:01:31;;;;;;;1.42;0.82;;;14.60;99.90;;;;;;5013716;28;20132;-54
2023/04/25 01:03:58;;;;;;;1.90;1.10;;;14.60;99.90;;;;;;5013745;28;20037;-53
2023/04/25 01:06:24;;;;;;;0.75;0.75;;;14.50;99.90;;;;;;5013656;28;20046;-52
2023/04/25 01:08:51;;;;;;;1.42;0.90;;;14.40;99.90;;;;;;5013644;28;20034;-52
2023/04/25 01:11:17;;;;;;;0.98;0.82;;;14.40;99.90;;;;;;5013750;28;20048;-54
2023/04/25 01:13:43;;;;;;;1.08;0.93;;;14.40;99.90;;;;;;5013510;28;20121;-51
2023/04/25 01:16:09;;;;;;;0.82;0.70;;;14.40;99.90;;;;;;5013613;28;20034;-54
2023/04/25 01:18:38;;;;;;;0.50;0.50;;;14.30;99.90;;;;;;5048081;28;20037;-54
2023/04/25 01:21:11;;;;;;;1.58;0.98;;;14.30;99.90;;;;;;5055245;28;20029;-53
2023/04/25 01:23:40;;;;;;;1.45;1.10;;;14.30;99.90;;;;;;5055639;28;20040;-54
2023/04/25 01:26:08;;;;;;;1.65;1.10;;;14.50;99.90;;;;;;5055217;28;20075;-54
2023/04/25 01:28:34;;;;;;;1.85;1.20;;;14.30;99.90;;;;;;5055386;28;20526;-51
2023/04/25 01:31:00;;;;;;;1.10;0.75;;;14.30;99.90;;;;;;5055435;28;20044;-54
2023/04/25 01:33:26;;;;;;;1.23;0.93;;;14.30;99.90;;;;;;5055041;28;20032;-51
2023/04/25 01:35:52;;;;;;;1.00;0.90;;;14.30;99.90;;;;;;5055085;28;20104;-52
2023/04/25 01:38:18;;;;;;;1.10;0.90;;;14.30;99.90;;;;;;5054778;28;20115;-54
2023/04/25 01:40:45;;;;;;;1.23;1.00;;;14.20;99.90;;;;;;5055037;28;20029;-52
2023/04/25 01:43:11;;;;;;;1.10;0.93;;;14.20;99.90;;;;;;5055005;28;20400;-51
2023/04/25 01:45:41;;;;;;;0.77;0.65;;;14.30;99.90;;;;;;5055114;28;20033;-52
2023/04/25 01:48:10;;;;;;;1.80;0.88;;;14.20;99.90;;;;;;5054592;28;20029;-53
2023/04/25 01:50:38;;;;;;;0.90;0.80;;;14.20;99.90;;;;;;5054566;28;20051;-53
2023/04/25 01:53:05;;;;;;;0.95;0.80;;;14.30;99.90;;;;;;5019761;28;20051;-53
2023/04/25 01:55:30;;;;;;;0.70;0.70;;;14.60;99.90;;;;;;5054668;28;20032;-52
2023/04/25 01:57:56;;;;;;;2.95;0.93;;;14.30;99.90;;;;;;5054708;28;20033;-52
2023/04/25 02:00:23;;;;;;;0.75;0.70;;;14.30;99.90;;;;;;5054885;28;20476;-54
2023/04/25 02:02:50;;;;;;;1.00;0.75;;;14.10;99.90;;;;;;5054627;28;20033;-51
2023/04/25 02:05:16;;;;;;;0.95;0.75;;;14.10;99.90;;;;;;5019422;28;20136;-54
2023/04/25 02:07:42;;;;;;;1.73;0.80;;;14.10;99.90;;;;;;5003051;28;20091;-54
2023/04/25 02:10:09;;;;;;;1.02;0.80;;;14.10;99.90;;;;;;5054584;28;20481;-54
2023/04/25 02:12:35;;;;;;;1.10;0.93;;;14.10;99.90;;;;;;5054267;28;20040;-52
2023/04/25 02:15:01;;;;;;;0.60;0.60;;;14.10;99.90;;;;;;5054285;28;20029;-51
2023/04/25 02:17:27;;;;;;;1.33;1.23;;;14.10;99.90;;;;;;5019077;28;20086;-55
2023/04/25 02:19:53;;;;;;;0.82;0.77;;;14.00;99.90;;;;;;5019144;28;20045;-55
2023/04/25 02:22:18;;;;;;;1.13;0.90;;;14.00;99.90;;;;;;5054060;28;20107;-54
2023/04/25 02:24:44;;;;;;;1.77;0.93;;;14.10;99.90;;;;;;5035909;28;20090;-51
2023/04/25 02:27:10;;;;;;;0.60;0.60;;;14.00;99.90;;;;;;5002704;28;20045;-55
2023/04/25 02:29:36;;;;;;;1.42;1.33;;;14.10;99.90;;;;;;5053963;28;20068;-54
2023/04/25 02:32:02;;;;;;;1.10;1.00;;;14.10;99.90;;;;;;5053974;28;20025;-55
2023/04/25 02:34:27;;;;;;;1.65;1.00;;;14.10;99.90;;;;;;5056866;28;20028;-55
2023/04/25 02:36:53;;;;;;;0.55;0.50;;;14.10;99.90;;;;;;5073928;28;20106;-53
2023/04/25 02:39:19;;;;;;;0.60;0.60;;;14.10;99.90;;;;;;5074427;28;20353;-54
2023/04/25 02:41:44;;;;;;;1.17;0.80;;;14.10;99.90;;;;;;5031602;28;20484;-53
2023/04/25 02:44:10;;;;;;;0.75;0.70;;;14.00;99.90;;;;;;5053945;28;20083;-51
2023/04/25 02:46:36;;;;;;;0.98;0.88;;;14.10;99.90;;;;;;5053810;28;20036;-53
2023/04/25 02:49:02;;;;;;;0.68;0.68;;;14.10;99.90;;;;;;5053634;28;20489;-54
2023/04/25 02:51:28;;;;;;;2.60;1.20;;;14.10;99.90;;;;;;5060857;28;20060;-54
2023/04/25 02:53:53;;;;;;;2.60;0.57;;;14.00;99.90;;;;;;5073516;28;20476;-54
2023/04/25 02:56:19;;;;;;;0.90;0.60;;;14.10;99.90;;;;;;5038486;28;20056;-54
2023/04/25 02:58:45;;;;;;;1.02;0.70;;;14.00;99.90;;;;;;5073472;28;20086;-55
2023/04/25 03:01:11;;;;;;;0.65;0.60;;;14.00;99.90;;;;;;5067840;28;20468;-52
2023/04/25 03:03:37;;;;;;;0.30;0.30;;;;;;;;;;5053194;28;20037;-52
2023/04/25 03:06:03;;;;;;;0.98;0.75;;;13.90;99.90;;;;;;5053241;28;20048;-54
2023/04/25 03:08:32;;;;;;;0.32;0.30;;;13.80;99.90;;;;;;5068519;28;20032;-51
2023/04/25 03:10:58;;;;;;;0.57;0.40;;;14.00;99.90;;;;;;5070032;28;20457;-55
2023/04/25 03:13:24;;;;;;;0.73;0.60;;;13.80;99.90;;;;;;5057567;28;20032;-53
2023/04/25 03:15:50;;;;;;;0.47;0.47;;;13.50;99.90;;;;;;5053004;28;20163;-54
2023/04/25 03:18:16;;;;;;;0.73;0.57;;;13.60;99.90;;;;;;5053103;28;20079;-51
2023/04/25 03:20:42;;;;;;;0.88;0.68;;;13.50;99.90;;;;;;5001511;28;20037;-55
2023/04/25 03:23:08;;;;;;;0.82;0.60;;;13.50;99.90;;;;;;5052937;28;20118;-51
2023/04/25 03:25:34;;;;;;;0.75;0.75;;;13.40;99.90;;;;;;5018150;28;20072;-53
2023/04/25 03:27:59;;;;;;;0.38;0.38;;;13.40;99.90;;;;;;5053581;28;20037;-53
2023/04/25 03:30:25;;;;;;;0.55;0.55;;;13.30;99.90;;;;;;5053014;28;20457;-55
2023/04/25 03:32:51;;;;;;;2.08;0.75;;;13.30;99.90;;;;;;5052988;28;20032;-55
2023/04/25 03:35:17;;;;;;;0.75;0.60;;;;;;;;;;5053047;28;20107;-54
2023/04/25 03:37:45;;;;;;;0.45;0.45;;;13.20;99.90;;;;;;5053195;28;20025;-55
2023/04/25 03:40:11;;;;;;;0.32;0.32;;;13.20;99.90;;;;;;5052975;28;20025;-50
2023/04/25 03:42:37;;;;;;;0.60;0.50;;;13.30;99.90;;;;;;5052842;28;20389;-56
2023/04/25 03:45:04;;;;;;;0.20;0.20;;;13.10;99.90;;;;;;5052768;28;20021;-55
2023/04/25 03:47:30;;;;;;;0.30;0.30;;;13.00;99.90;;;;;;5053143;28;20033;-53
2023/04/25 03:49:55;;;;;;;0.10;0.10;;;12.90;99.90;;;;;;5052628;28;20391;-55
2023/04/25 03:52:21;;;;;;;0.10;0.10;;;12.80;99.90;;;;;;5052882;28;20029;-51
2023/04/25 03:54:47;;;;;;;0.28;0.28;;;12.50;99.90;;;;;;5052874;28;20056;-51
2023/04/25 03:57:13;;;;;;;0.13;0.13;;;;;;;;;;5017643;28;20125;-52
2023/04/25 03:59:38;;;;;;;0.38;0.38;;;12.40;99.90;;;;;;5018330;28;20048;-53
2023/04/25 04:02:04;;;;;;;0.45;0.45;;;12.30;99.90;;;;;;5053895;28;20374;-51
2023/04/25 04:04:30;;;;;;;0.20;0.20;;;12.20;99.90;;;;;;5053942;28;20029;-54
2023/04/25 04:06:56;;;;;;;0.13;0.13;;;12.10;99.90;;;;;;5052845;28;20033;-52
2023/04/25 04:09:22;;;;;;;0.20;0.20;;;12.00;99.90;;;;;;5052640;28;20419;-52
2023/04/25 04:11:48;;;;;;;0.20;0.20;;;12.10;99.90;;;;;;5052846;28;20036;-54
2023/04/25 04:14:13;;;;;;;0.43;0.43;;;12.00;99.90;;;;;;5053277;28;20025;-56
2023/04/25 04:16:39;;;;;;;0.25;0.20;;;11.90;99.90;;;;;;5017860;28;20047;-52
2023/04/25 04:19:05;;;;;;;0.40;0.40;;;12.00;99.90;;;;;;5052453;28;20124;-55
2023/04/25 04:21:31;;;;;;;0.25;0.25;;;12.00;99.90;;;;;;5003441;28;20051;-55
2023/04/25 04:23:59;;;;;;;0.30;0.30;;;12.00;99.90;;;;;;5017902;28;20453;-55
2023/04/25 04:26:26;;;;;;;0.70;0.70;;;12.20;99.90;;;;;;5057728;28;20032;-54
2023/04/25 04:28:54;;;;;;;1.23;1.13;;;12.20;99.90;;;;;;5067283;28;20079;-53
2023/04/25 04:31:21;;;;;;;0.30;0.30;;;12.20;99.90;;;;;;5065509;28;20116;-53
2023/04/25 04:33:47;;;;;;;0.57;0.55;;;12.10;99.90;;;;;;5069750;28;20492;-51
2023/04/25 04:36:13;;;;;;;0.40;0.40;;;12.10;99.90;;;;;;5073311;28;20063;-54
2023/04/25 04:38:40;;;;;;;0.45;0.40;;;12.10;99.90;;;;;;5076106;28;20112;-54
2023/04/25 04:41:06;;;;;;;0.63;0.55;;;12.10;99.90;;;;;;5065602;28;20031;-53
2023/04/25 04:43:33;;;;;;;0.40;0.30;;;12.10;99.90;;;;;;5055814;28;20021;-55
2023/04/25 04:46:00;;;;;;;0.60;0.60;;;12.10;99.90;;;;;;5055788;28;20475;-54
2023/04/25 04:48:26;;;;;;;0.30;0.30;;;12.00;99.90;;;;;;5034984;28;20487;-56
2023/04/25 04:50:52;;;;;;;0.68;0.68;;;11.90;99.90;;;;;;5075180;28;20086;-56
2023/04/25 04:53:18;;;;;;;0.38;0.30;;;12.10;99.90;;;;;;5042781;28;20066;-51
2023/04/25 04:55:44;;;;;;;0.65;0.63;;;12.00;99.90;;;;;;5069269;28;20056;-53
2023/04/25 04:58:10;;;;;;;0.60;0.60;;;12.00;99.90;;;;;;5030200;28;20075;-53
2023/04/25 05:00:36;;;;;;;0.43;0.40;;;11.90;99.90;;;;;;5011150;28;20068;-55
2023/04/25 05:03:02;;;;;;;0.40;0.40;;;;;;;;;;5012827;28;20097;-55
2023/04/25 05:05:27;;;;;;;0.50;0.50;;;11.70;99.90;;;;;;5065427;28;20079;-54
2023/04/25 05:07:53;;;;;;;0.50;0.50;;;11.70;99.90;;;;;;5064290;28;20036;-52
2023/04/25 05:10:20;;;;;;;0.38;0.38;;;;;;;;;;5060902;28;20049;-52
2023/04/25 05:12:46;;;;;;;0.73;0.50;;;11.70;99.90;;;;;;5060567;28;20021;-55
2023/04/25 05:15:12;;;;;;;0.28;0.20;;;11.60;99.90;;;;;;5062697;28;20017;-54
2023/04/25 05:17:38;;;;;;;1.80;0.60;;;11.60;99.90;;;;;;5065676;28;20193;-54
2023/04/25 05:20:06;;;;;;;0.98;0.82;;;11.50;99.90;;;;;;5065514;28;20458;-52
2023/04/25 05:22:32;;;;;;;0.93;0.85;;;;;;;;;;4997045;28;20381;-55
2023/04/25 05:24:58;;;;;;;1.33;0.73;;;11.60;99.90;;;;;;5064895;28;20071;-55
2023/04/25 05:27:24;;;;;;;0.80;0.80;;;11.60;99.90;;;;;;5065091;28;20551;-53
2023/04/25 05:29:50;;;;;;;3.22;0.63;;;11.60;99.90;;;;;;5029281;28;20423;-54
2023/04/25 05:32:15;;;;;;;0.55;0.55;;;11.50;99.90;;;;;;5066160;28;20460;-55
2023/04/25 05:34:41;;;;;;;0.70;0.70;;;;;;;;;;5075434;28;20487;-55
2023/04/25 05:37:07;;;;;;;0.63;0.60;;;11.50;99.90;;;;;;5074542;28;20074;-55
2023/04/25 05:39:33;;;;;;;2.65;0.63;;;11.50;99.90;;;;;;5070572;28;20029;-54
2023/04/25 05:41:59;;;;;;;0.43;0.43;;;11.60;99.90;;;;;;5038613;28;20056;-53
2023/04/25 05:44:25;;;;;;;0.63;0.60;;;11.50;99.90;;;;;;5038336;28;20037;-53
2023/04/25 05:46:51;;;;;;;0.47;0.45;;;11.50;99.90;;;;;;5072492;28;20098;-55
2023/04/25 05:49:16;;;;;;;1.17;1.08;;;11.50;99.90;;;;;;5065356;28;20068;-56
2023/04/25 05:51:42;;;;;;;0.85;0.52;;;11.60;99.90;;;;;;5063428;28;20041;-55
2023/04/25 05:54:09;;;;;;;0.75;0.47;;;11.60;99.90;;;;;;5013074;28;20041;-56
2023/04/25 05:56:35;;;;;;;1.70;1.40;;;11.50;99.90;;;;;;5064349;28;20033;-56
2023/04/25 05:59:01;;;;;;;1.23;0.70;;;11.60;99.90;;;;;;5029665;28;20033;-56
2023/04/25 06:01:26;;;;;;;0.93;0.57;;;11.60;99.90;;;;;;5063743;28;20375;-55
2023/04/25 06:03:52;;;;;;;0.65;0.65;;;11.60;99.90;;;;;;5062091;28;20025;-52
2023/04/25 06:06:18;;;;;;;1.20;0.98;;;11.80;99.90;;;;;;5065491;28;20045;-52
2023/04/25 06:08:44;;;;;;;0.70;0.70;;;11.90;99.90;;;;;;5063356;28;20024;-54
2023/04/25 06:11:10;;;;;;;0.73;0.70;;;11.90;99.90;;;;;;5064715;28;20452;-53
2023/04/25 06:13:36;;;;;;;0.52;0.40;;;11.80;99.90;;;;;;5063841;28;20031;-55
2023/04/25 06:16:02;;;;;;;1.70;1.33;;;11.90;99.90;;;;;;5063312;28;20028;-56
2023/04/25 06:18:28;;;;;;;1.15;0.80;;;11.90;99.90;;;;;;5029353;28;20036;-62
2023/04/25 06:20:53;;;;;;;0.80;0.75;;;11.90;99.90;;;;;;5027550;28;20104;-55
2023/04/25 06:23:19;;;;;;;0.85;0.82;;;11.90;99.90;;;;;;5026652;28;20043;-51
2023/04/25 06:25:45;;;;;;;1.45;1.20;;;12.00;99.90;;;;;;5059849;28;20025;-50
2023/04/25 06:28:10;;;;;;;2.60;1.02;;;12.00;99.90;;;;;;5019215;28;20048;-50
2023/04/25 06:30:36;;;;;;;0.55;0.55;;;12.00;99.90;;;;;;5053989;28;20067;-50
2023/04/25 06:33:02;;;;;;;0.70;0.68;;;12.10;99.90;;;;;;5053950;28;20032;-50
2023/04/25 06:35:28;;;;;;;0.55;0.55;;;12.10;99.90;;;;;;5054266;28;20095;-51
2023/04/25 06:37:53;;;;;;;0.52;0.52;;;12.20;99.90;;;;;;5054313;28;20111;-50
2023/04/25 06:40:19;;;;;;;0.70;0.63;;;12.20;99.90;;;;;;5053950;28;20021;-52
2023/04/25 06:42:45;;;;;;;1.17;0.80;;;12.10;99.90;;;;;;5053644;28;20035;-53
2023/04/25 06:45:10;;;;;;;0.52;0.52;;;12.20;99.90;;;;;;5021501;28;20120;-50
2023/04/25 06:47:36;;;;;;;0.45;0.45;;;12.20;99.90;;;;;;5072199;28;20036;-51
2023/04/25 06:50:02;;;;;;;1.17;0.90;;;12.30;99.90;;;;;;5073408;28;20051;-53
2023/04/25 06:52:28;;;;;;;2.13;1.35;;;12.40;99.90;;;;;;5038799;28;20049;-53
2023/04/25 06:54:53;;;;;;;0.85;0.65;;;12.50;99.90;;;;;;5073670;28;20053;-50
2023/04/25 06:57:19;;;;;;;0.55;0.52;;;12.40;99.90;;;;;;5073218;28;20039;-50
2023/04/25 06:59:45;;;;;;;0.50;0.43;;;12.50;99.90;;;;;;5073634;28;20078;-53
2023/04/25 07:02:11;;;;;;;0.75;0.75;;;12.60;99.90;;;;;;5073810;28;20036;-51
2023/04/25 07:04:37;;;;;;;1.58;1.30;;;12.70;99.90;;;;;;5073451;28;20093;-52
2023/04/25 07:07:03;;;;;;;1.00;0.88;;;12.80;99.90;;;;;;5038404;28;20449;-53
2023/04/25 07:09:29;;;;;;;1.02;0.80;;;12.80;99.90;;;;;;5073259;28;20036;-53
2023/04/25 07:11:56;;;;;;;3.47;1.05;;;12.90;99.90;;;;;;5073676;28;20071;-52
2023/04/25 07:14:22;;;;;;;3.80;1.20;;;;;;;;;;5073386;28;20036;-50
2023/04/25 07:16:49;;;;;;;1.85;1.45;;;12.90;99.90;;;;;;5073530;28;20036;-51
2023/04/25 07:19:15;;;;;;;1.55;1.30;;;12.90;99.90;;;;;;5073246;28;20040;-50
2023/04/25 07:21:40;;;;;;;0.85;0.85;;;13.10;99.90;;;;;;5073099;28;20036;-52
2023/04/25 07:24:06;;;;;;;1.95;1.40;;;13.10;99.90;;;;;;5073649;28;20111;-52
2023/04/25 07:26:33;;;;;;;2.40;2.00;;;13.30;99.90;;;;;;5015539;28;20573;-50
2023/04/25 07:28:58;;;;;;;0.90;0.90;;;13.50;99.90;;;;;;5063328;28;20484;-50
2023/04/25 07:31:25;;;;;;;1.60;0.73;;;13.60;99.90;;;;;;5068638;28;20035;-51
2023/04/25 07:33:50;;;;;;;1.13;0.85;;;13.70;99.90;;;;;;5063859;28;20025;-52
2023/04/25 07:36:16;;;;;;;1.60;1.05;;;;;;;;;;5063539;28;20128;-52
2023/04/25 07:38:42;;;;;;;0.85;0.85;;;14.10;99.90;;;;;;5062049;28;20025;-51
2023/04/25 07:41:08;;;;;;;1.35;0.80;;;14.30;99.90;;;;;;5030857;28;20051;-50
2023/04/25 07:43:33;;;;;;;0.28;0.28;;;14.50;99.90;;;;;;5072808;28;20044;-50
2023/04/25 07:45:59;;;;;;;2.58;1.65;;;14.40;99.90;;;;;;5067291;28;20064;-55
2023/04/25 07:48:25;;;;;;;2.05;1.50;;;14.30;99.90;;;;;;5063223;28;20499;-52
2023/04/25 07:50:51;;;;;;;1.20;1.10;;;14.70;99.90;;;;;;5062592;28;20044;-50
2023/04/25 07:53:18;;;;;;;0.95;0.80;;;14.70;99.90;;;;;;5063036;28;20099;-50
2023/04/25 07:55:43;;;;;;;1.35;1.05;;;14.80;99.90;;;;;;5060632;28;20429;-51
2023/04/25 07:58:10;;;;;;;1.73;1.05;;;;;;;;;;5003461;28;20048;-47
2023/04/25 08:00:36;;;;;;;1.02;0.93;;;15.00;99.90;;;;;;5062151;28;20021;-54
2023/04/25 08:03:02;;;;;;;1.63;1.48;;;15.20;99.90;;;;;;5062836;28;20085;-47
2023/04/25 08:05:28;;;;;;;0.80;0.60;;;15.10;99.90;;;;;;5061740;28;20037;-52
2023/04/25 08:07:55;;;;;;;1.33;0.80;;;15.40;99.90;;;;;;5063902;28;20499;-51
2023/04/25 08:10:22;;;;;;;1.02;0.93;;;;;;;;;;5032095;28;20044;-52
2023/04/25 08:12:49;;;;;;;1.05;0.88;;;;;;;;;;5066824;28;20033;-53
2023/04/25 08:15:15;;;;;;;0.45;0.40;;;15.90;99.90;;;;;;5066078;28;20469;-53
2023/04/25 08:17:41;;;;;;;0.70;0.70;;;15.60;99.90;;;;;;5069557;28;20025;-56
2023/04/25 08:20:07;;;;;;;0.30;0.30;;;15.50;99.90;;;;;;5066679;28;20016;-54
2023/04/25 08:22:33;;;;;;;0.75;0.75;;;15.50;99.90;;;;;;5012908;28;20040;-53
2023/04/25 08:24:59;;;;;;;0.47;0.47;;;15.80;99.90;;;;;;5066520;28;20040;-50
2023/04/25 08:27:25;;;;;;;0.30;0.30;;;15.90;99.90;;;;;;5071069;28;20388;-51
2023/04/25 08:29:51;;;;;;;0.50;0.50;;;15.50;99.90;;;;;;5065756;28;20028;-52
2023/04/25 08:32:17;;;;;;;0.60;0.60;;;15.50;99.90;;;;;;5066363;28;20036;-50
2023/04/25 08:34:43;;;;;;;0.60;0.60;;;15.80;99.90;;;;;;5065686;28;20060;-52
2023/04/25 08:37:10;;;;;;;0.50;0.50;;;15.90;99.90;;;;;;5064957;28;20422;-50
2023/04/25 08:39:38;;;;;;;0.82;0.55;;;16.00;99.90;;;;;;5071915;28;20017;-53
2023/04/25 08:42:10;;;;;;;0.68;0.50;;;16.20;99.90;;;;;;5004535;28;20044;-49
2023/04/25 08:44:36;;;;;;;4.70;0.68;;;;;;;;;;5055794;28;20068;-49
2023/04/25 08:47:05;;;;;;;0.30;0.30;;;16.50;99.90;;;;;;5056610;28;20046;-50
2023/04/25 08:49:35;;;;;;;0.55;0.55;;;16.70;99.90;;;;;;5055773;28;20037;-50
2023/04/25 08:52:05;;;;;;;0.50;0.50;;;;;;;;;;5027580;28;20567;-50
2023/04/25 08:54:31;;;;;;;1.45;0.75;;;;;;;;;;5074526;28;20089;-50
2023/04/25 08:57:01;;;;;;;0.95;0.70;;;17.50;99.90;;;;;;5075990;28;20024;-49
2023/04/25 08:59:28;;;;;;;0.50;0.50;;;17.60;99.90;;;;;;5076117;28;20368;-49
2023/04/25 09:01:55;;;;;;;0.90;0.65;;;17.00;99.90;;;;;;5075641;28;20123;-49
2023/04/25 09:04:21;;;;;;;0.82;0.60;;;17.30;99.90;;;;;;5075942;28;20456;-49
2023/04/25 09:06:47;;;;;;;0.68;0.65;;;17.10;99.90;;;;;;5075763;28;20170;-49
2023/04/25 09:09:13;;;;;;;0.85;0.63;;;17.10;99.90;;;;;;5052619;28;20070;-49
2023/04/25 09:11:40;;;;;;;0.60;0.60;;;16.90;99.90;;;;;;5066508;28;20370;-49
2023/04/25 09:14:17;;;;;;;0.60;0.60;;;17.10;99.90;;;;;;5022728;28;20077;-49
2023/04/25 09:17:04;;;;;;;0.98;0.70;;;16.70;99.90;;;;;;5022360;28;20367;-49
2023/04/25 09:19:39;;;;;;;5.20;1.00;;;16.70;99.90;;;;;;5022655;28;20081;-49
2023/04/25 09:22:06;;;;;;;6.60;1.30;;;16.40;99.90;;;;;;5022849;28;20397;-49
2023/04/25 09:24:43;;;;;;;0.30;0.30;;;16.80;99.90;;;;;;5018958;28;20033;-49
2023/04/25 09:27:17;;;;;;;0.45;0.45;;;16.90;99.90;;;;;;5023190;28;20183;-49
2023/04/25 09:29:43;;;;;;;0.45;0.45;;;16.90;99.90;;;;;;5022140;28;20123;-49
2023/04/25 09:32:22;;;;;;;1.70;0.75;;;16.60;99.90;;;;;;5022146;28;20060;-49
2023/04/25 09:34:52;;;;;;;1.00;0.68;;;16.40;99.90;;;;;;5022634;28;20046;-49
2023/04/25 09:37:20;;;;;;;0.52;0.52;;;16.40;99.90;;;;;;5029836;28;20049;-49
2023/04/25 09:39:50;;;;;;;0.65;0.60;;;16.30;99.90;;;;;;5017453;28;20034;-49
2023/04/25 09:42:17;;;;;;;0.80;0.60;;;15.90;99.90;;;;;;5012972;28;20084;-49
2023/04/25 09:44:47;;;;;;;0.70;0.60;;;16.10;99.90;;;;;;5027832;28;20048;-49
2023/04/25 09:47:16;;;;;;;1.45;0.65;;;15.70;99.90;;;;;;5054962;28;20384;-49
2023/04/25 09:49:42;;;;;;;0.70;0.70;;;15.70;99.90;;;;;;5054529;28;20098;-49
2023/04/25 09:52:09;;;;;;;1.20;0.82;;;16.00;99.90;;;;;;5064786;28;20400;-49
2023/04/25 09:54:34;;;;;;;0.60;0.60;;;16.00;99.90;;;;;;5055589;28;20058;-49
2023/04/25 09:57:30;;;;;;;0.70;0.57;;;;;;;;;;5074607;28;20384;-49
2023/04/25 09:59:56;;;;;;;1.40;0.77;;;;;;;;;;4973771;28;20058;-48
2023/04/25 10:02:23;;;;;;;0.70;0.70;;;;;;;;;;4973679;28;20038;-48
2023/04/25 10:04:52;;;;;;;0.52;0.40;;;;;;;;;;4973766;28;20050;-48
2023/04/25 10:07:25;;;;;;;0.68;0.68;;;16.60;99.90;;;;;;4973273;28;20631;-48
2023/04/25 10:09:55;;;;;;;0.70;0.70;;;;;;;;;;4973672;28;20043;-48
2023/04/25 10:12:22;;;;;;;0.73;0.43;;;;;;;;;;4966996;28;20062;-48
2023/04/25 10:14:48;;;;;;;0.30;0.30;;;;;;;;;;4965446;28;20054;-48
2023/04/25 10:17:15;;;;;;;0.50;0.50;;;;;;;;;;4973369;28;20082;-48
2023/04/25 10:19:41;;;;;;;3.08;1.02;;;;;;;;;;4935431;29;20811;-51
2023/04/25 10:22:17;;;;;;;6.63;3.15;;;17.60;99.90;;;;;;4943425;29;20086;-50
2023/04/25 10:24:44;;;;;;;0.90;0.85;;;17.40;99.90;;;;;;4939958;29;20044;-50
2023/04/25 10:27:10;;;;;;;3.05;1.67;;;17.20;99.90;;;;;;4933716;29;20040;-50
2023/04/25 10:29:36;;;;;;;1.38;0.75;;;17.40;99.90;;;;;;4940051;29;20074;-49
2023/04/25 10:32:02;;;;;;;1.52;0.60;;;17.70;99.90;;;;;;4908643;29;20417;-52
2023/04/25 10:34:48;;;;;;;0.57;0.57;;;17.90;99.90;;;;;;4920199;29;20468;-51
2023/04/25 10:37:14;;;;;;;0.63;0.63;;;18.30;99.90;;;;;;4993731;28;20218;-55
2023/04/25 10:39:41;;;;;;;0.40;0.40;;;18.90;99.90;;;;;;5002495;28;20077;-51
2023/04/25 10:42:10;;;;;;;0.55;0.55;;;;;;;;;;4985314;28;20066;-51
2023/04/25 10:44:39;;;;;;;0.82;0.57;;;18.70;99.90;;;;;;5000489;28;20039;-51
2023/04/25 10:47:07;;;;;;;1.15;0.60;;;18.30;99.90;;;;;;5001706;28;20143;-51
2023/04/25 10:49:38;;;;;;;0.43;0.43;;;;;;;;;;5004839;28;20557;-53
2023/04/25 10:52:26;;;;;;;0.70;0.60;;;17.50;99.90;;;;;;5008992;28;20045;-50
2023/04/25 10:54:52;;;;;;;0.50;0.50;;;17.40;99.90;;;;;;4993310;28;20111;-51
2023/04/25 10:57:49;;;;;;;0.77;0.60;;;17.50;99.90;;;;;;4993973;28;20092;-51
2023/04/25 11:00:15;;;;;;;0.40;0.40;;;17.80;99.90;;;;;;4951847;28;20101;-53
2023/04/25 11:02:53;;;;;;;0.40;0.40;;;17.90;99.90;;;;;;4952671;29;20126;-50
2023/04/25 11:05:36;;;;;;;0.40;0.40;;;18.60;99.90;;;;;;4952560;29;20507;-53
2023/04/25 11:08:03;;;;;;;1.05;0.55;;;18.10;99.90;;;;;;4952461;29;20498;-53
2023/04/25 11:10:30;;;;;;;0.30;0.30;;;18.20;99.90;;;;;;4952517;29;20102;-57
2023/04/25 11:12:57;;;;;;;0.70;0.70;;;18.50;99.90;;;;;;4944380;29;20039;-56
2023/04/25 11:15:23;;;;;;;1.02;0.77;;;18.70;99.90;;;;;;4952215;28;20090;-51
2023/04/25 11:17:51;;;;;;;1.10;0.55;;;;;;;;;;4953041;29;20043;-50
2023/04/25 11:20:17;;;;;;;0.40;0.40;;;;;;;;;;4952572;29;20035;-54
2023/04/25 11:22:45;;;;;;;0.82;0.68;;;;;;;;;;4960130;28;20094;-53
2023/04/25 11:25:14;;;;;;;0.50;0.50;;;18.80;99.90;;;;;;4972129;28;20721;-53
2023/04/25 11:27:51;;;;;;;1.45;0.68;;;18.40;99.90;;;;;;4972161;28;20062;-55
2023/04/25 11:30:17;;;;;;;1.05;0.60;;;18.20;99.90;;;;;;4972397;28;20066;-54
2023/04/25 11:32:43;;;;;;;1.75;0.93;;;18.00;99.90;;;;;;4956003;28;20058;-53
2023/04/25 11:35:11;;;;;;;0.75;0.75;;;17.90;99.90;;;;;;4940068;28;20047;-54
2023/04/25 11:37:41;;;;;;;0.93;0.68;;;17.80;99.90;;;;;;5047261;28;20040;-54
2023/04/25 11:40:09;;;;;;;0.80;0.80;;;18.00;99.90;;;;;;5053124;28;20369;-53
2023/04/25 11:42:37;;;;;;;0.75;0.63;;;18.70;99.90;;;;;;4986855;28;20127;-53
2023/04/25 11:45:04;;;;;;;2.38;1.08;;;19.30;99.90;;;;;;5056922;28;20469;-53
2023/04/25 11:47:33;;;;;;;1.15;0.75;;;19.70;99.90;;;;;;5056807;28;20051;-53
2023/04/25 11:50:02;;;;;;;0.88;0.63;;;20.10;99.20;;;;;;5051270;28;20057;-52
2023/04/25 11:52:38;;;;;;;0.95;0.68;;;;;;;;;;5037130;28;20040;-51
2023/04/25 11:55:06;;;;;;;1.20;0.95;;;20.60;99.90;;;;;;5037409;28;20025;-54
2023/04/25 11:57:32;;;;;;;0.80;0.50;;;21.30;99.90;;;;;;4985845;28;20052;-54
2023/04/25 12:00:08;;;;;;;0.80;0.77;;;21.20;96.10;;;;;;4969492;28;20049;-54
2023/04/25 12:02:37;;;;;;;0.50;0.50;;;21.00;94.90;;;;;;5036877;28;20032;-50
2023/04/25 12:05:08;;;;;;;0.57;0.47;;;20.90;96.10;;;;;;5036873;28;20036;-53
2023/04/25 12:07:34;;;;;;;0.30;0.30;;;20.80;95.40;;;;;;5036599;28;20049;-52
2023/04/25 12:10:05;;;;;;;0.60;0.52;;;20.70;95.50;;;;;;5036937;28;20030;-52
2023/04/25 12:12:35;;;;;;;1.58;0.90;;;20.50;94.50;;;;;;5036835;28;20048;-53
2023/04/25 12:15:15;;;;;;;1.45;0.80;;;20.50;95.50;;;;;;5036664;28;20443;-52
2023/04/25 12:17:42;;;;;;;1.33;1.23;;;20.40;96.30;;;;;;5036712;28;20030;-50
2023/04/25 12:20:10;;;;;;;0.43;0.43;;;20.30;95.10;;;;;;5037027;28;20044;-54
2023/04/25 12:22:36;;;;;;;0.40;0.40;;;20.30;95.90;;;;;;4956575;28;20123;-55
2023/04/25 12:25:04;;;;;;;0.60;0.60;;;;;;;;;;5037817;28;20129;-52
2023/04/25 12:27:31;;;;;;;0.30;0.30;;;21.40;99.90;;;;;;5056055;28;20052;-51
2023/04/25 12:29:58;;;;;;;0.55;0.50;;;;;;;;;;5056346;28;20025;-52
2023/04/25 12:32:24;;;;;;;1.75;0.63;;;20.40;99.90;;;;;;5056055;28;20037;-52
2023/04/25 12:34:50;;;;;;;0.70;0.70;;;20.80;99.90;;;;;;5056241;28;20040;-48
2023/04/25 12:37:16;;;;;;;2.17;0.65;;;20.90;99.90;;;;;;4977830;28;20045;-56
2023/04/25 12:39:42;;;;;;;0.55;0.40;;;20.80;99.90;;;;;;5055652;28;20480;-52
2023/04/25 12:42:11;;;;;;;1.05;0.65;;;;;;;;;;5049773;28;20030;-46
2023/04/25 12:44:37;;;;;;;0.30;0.30;;;;;;;;;;5048694;28;20149;-49
2023/04/25 12:47:05;;;;;;;0.98;0.65;;;;;;;;;;5038942;28;20370;-53
2023/04/25 12:49:31;;;;;;;0.50;0.50;;;;;;;;;;5055091;28;20033;-50
2023/04/25 12:51:58;;;;;;;1.55;0.60;;;;;;;;;;5076297;28;20024;-51
2023/04/25 12:54:25;;;;;;;1.40;0.68;;;;;;;;;;5074645;28;20082;-52
2023/04/25 12:56:51;;;;;;;0.43;0.43;;;;;;;;;;5075934;28;20036;-50
2023/04/25 12:59:18;;;;;;;0.73;0.40;;;;;;;;;;5075852;28;20036;-52